Terminal Aerodrome Forecast
Issued by NWS

Home | Current Version | Previous Version | Text Only | Print | Product List | Glossary On
Versions: 1 2 3 4 5 6 7 8 9 10 11 12 13
000
FTUS44 KLZK 271731
TAFLLQ
TAF
KLLQ 271731Z 2718/2818 20009G18KT P6SM BKN025 BKN050
      TEMPO 2718/2720 SCT030
     FM272000 20009G18KT P6SM SCT030 BKN050
     FM280100 19008KT P6SM BKN050
     FM280800 22008KT P6SM VCTS SCT030CB OVC050 PROB30 2810/2812
      VRB15G30KT 3SM -TSRA BR OVC025CB=

USA.gov is the U.S. government's official web portal to all federal, state and local government web resources and services.